sensor_id;sensor_type;location;lat;lon;timestamp;P1;durP1;ratioP1;P2;durP2;ratioP2
15970;SDS011;59785;52.582;13.892;2022-12-16T04:55:13;45.78;;;23.27;;
15970;SDS011;59785;52.582;13.892;2022-12-16T04:57:58;55.15;;;26.52;;
15970;SDS011;59785;52.582;13.892;2022-12-16T05:00:54;50.45;;;23.85;;
15970;SDS011;59785;52.582;13.892;2022-12-16T05:03:39;62.07;;;26.70;;
15970;SDS011;59785;52.582;13.892;2022-12-16T05:06:24;51.05;;;25.05;;
15970;SDS011;59785;52.582;13.892;2022-12-16T05:09:09;49.20;;;23.83;;
15970;SDS011;59785;52.582;13.892;2022-12-16T05:11:53;48.28;;;23.88;;
15970;SDS011;59785;52.582;13.892;2022-12-16T05:14:39;49.75;;;24.13;;
15970;SDS011;59785;52.582;13.892;2022-12-16T05:17:23;47.95;;;26.45;;
15970;SDS011;59785;52.582;13.892;2022-12-16T05:20:08;50.65;;;26.92;;
15970;SDS011;59785;52.582;13.892;2022-12-16T05:22:54;48.45;;;25.65;;
15970;SDS011;59785;52.582;13.892;2022-12-16T05:25:40;54.25;;;26.73;;
15970;SDS011;59785;52.582;13.892;2022-12-16T05:28:25;47.95;;;25.88;;
15970;SDS011;59785;52.582;13.892;2022-12-16T05:31:09;55.83;;;25.73;;
15970;SDS011;59785;52.582;13.892;2022-12-16T05:33:54;51.85;;;27.92;;
15970;SDS011;59785;52.582;13.892;2022-12-16T05:36:39;57.83;;;26.80;;
15970;SDS011;59785;52.582;13.892;2022-12-16T05:39:23;62.43;;;29.33;;
15970;SDS011;59785;52.582;13.892;2022-12-16T05:42:25;54.13;;;24.10;;
15970;SDS011;59785;52.582;13.892;2022-12-16T05:45:10;49.45;;;27.02;;
15970;SDS011;59785;52.582;13.892;2022-12-16T05:47:54;57.27;;;27.03;;
15970;SDS011;59785;52.582;13.892;2022-12-16T05:50:39;53.20;;;26.50;;
15970;SDS011;59785;52.582;13.892;2022-12-16T05:53:24;56.00;;;26.83;;
15970;SDS011;59785;52.582;13.892;2022-12-16T05:56:09;55.07;;;27.73;;
15970;SDS011;59785;52.582;13.892;2022-12-16T05:58:53;54.17;;;29.85;;
15970;SDS011;59785;52.582;13.892;2022-12-16T06:01:38;51.47;;;26.00;;
15970;SDS011;59785;52.582;13.892;2022-12-16T06:04:24;56.75;;;26.90;;
15970;SDS011;59785;52.582;13.892;2022-12-16T06:07:08;62.20;;;27.38;;
15970;SDS011;59785;52.582;13.892;2022-12-16T06:09:53;50.72;;;26.35;;
15970;SDS011;59785;52.582;13.892;2022-12-16T06:12:38;56.63;;;26.05;;
15970;SDS011;59785;52.582;13.892;2022-12-16T06:15:22;56.10;;;25.88;;
15970;SDS011;59785;52.582;13.892;2022-12-16T06:18:07;48.83;;;25.40;;
15970;SDS011;59785;52.582;13.892;2022-12-16T06:20:52;60.97;;;29.73;;
15970;SDS011;59785;52.582;13.892;2022-12-16T06:23:36;55.97;;;26.42;;
15970;SDS011;59785;52.582;13.892;2022-12-16T06:26:24;61.30;;;27.15;;
15970;SDS011;59785;52.582;13.892;2022-12-16T06:29:09;52.00;;;27.17;;
15970;SDS011;59785;52.582;13.892;2022-12-16T06:31:54;55.90;;;27.05;;
15970;SDS011;59785;52.582;13.892;2022-12-16T06:34:38;59.20;;;29.75;;
15970;SDS011;59785;52.582;13.892;2022-12-16T06:37:23;55.10;;;29.50;;
15970;SDS011;59785;52.582;13.892;2022-12-16T06:40:08;60.92;;;29.85;;
15970;SDS011;59785;52.582;13.892;2022-12-16T06:42:53;51.30;;;27.83;;
15970;SDS011;59785;52.582;13.892;2022-12-16T06:45:38;48.67;;;27.00;;
15970;SDS011;59785;52.582;13.892;2022-12-16T06:48:24;52.83;;;25.33;;
15970;SDS011;59785;52.582;13.892;2022-12-16T06:51:08;53.60;;;30.30;;
15970;SDS011;59785;52.582;13.892;2022-12-16T06:53:53;56.47;;;29.70;;
15970;SDS011;59785;52.582;13.892;2022-12-16T06:56:38;62.43;;;30.10;;
15970;SDS011;59785;52.582;13.892;2022-12-16T06:59:23;58.97;;;27.30;;
15970;SDS011;59785;52.582;13.892;2022-12-16T07:02:08;51.25;;;25.77;;
15970;SDS011;59785;52.582;13.892;2022-12-16T07:04:55;60.95;;;30.90;;
15970;SDS011;59785;52.582;13.892;2022-12-16T07:07:45;58.22;;;26.42;;
15970;SDS011;59785;52.582;13.892;2022-12-16T07:10:34;51.13;;;27.10;;
15970;SDS011;59785;52.582;13.892;2022-12-16T07:13:26;57.80;;;27.50;;
15970;SDS011;59785;52.582;13.892;2022-12-16T07:16:10;54.42;;;26.73;;
15970;SDS011;59785;52.582;13.892;2022-12-16T07:18:55;56.88;;;29.35;;
15970;SDS011;59785;52.582;13.892;2022-12-16T07:21:40;55.72;;;29.13;;
15970;SDS011;59785;52.582;13.892;2022-12-16T07:24:25;60.67;;;30.50;;
15970;SDS011;59785;52.582;13.892;2022-12-16T07:27:09;59.28;;;30.55;;
15970;SDS011;59785;52.582;13.892;2022-12-16T07:29:54;58.80;;;28.40;;
15970;SDS011;59785;52.582;13.892;2022-12-16T07:32:39;60.93;;;29.10;;
15970;SDS011;59785;52.582;13.892;2022-12-16T07:35:23;66.55;;;32.33;;
15970;SDS011;59785;52.582;13.892;2022-12-16T07:38:08;65.05;;;32.25;;
15970;SDS011;59785;52.582;13.892;2022-12-16T07:40:53;63.55;;;30.42;;
15970;SDS011;59785;52.582;13.892;2022-12-16T07:43:38;66.32;;;30.13;;
15970;SDS011;59785;52.582;13.892;2022-12-16T07:46:23;62.63;;;30.02;;
15970;SDS011;59785;52.582;13.892;2022-12-16T07:49:08;61.97;;;29.33;;
15970;SDS011;59785;52.582;13.892;2022-12-16T07:51:52;64.55;;;30.95;;
15970;SDS011;59785;52.582;13.892;2022-12-16T07:54:37;64.55;;;33.05;;
15970;SDS011;59785;52.582;13.892;2022-12-16T07:57:22;66.28;;;29.48;;
15970;SDS011;59785;52.582;13.892;2022-12-16T08:00:06;63.67;;;31.43;;
15970;SDS011;59785;52.582;13.892;2022-12-16T08:05:37;67.47;;;31.80;;
15970;SDS011;59785;52.582;13.892;2022-12-16T08:08:22;67.53;;;30.67;;
15970;SDS011;59785;52.582;13.892;2022-12-16T08:11:07;69.03;;;31.17;;
15970;SDS011;59785;52.582;13.892;2022-12-16T08:13:51;75.23;;;34.47;;
15970;SDS011;59785;52.582;13.892;2022-12-16T08:16:36;69.67;;;31.23;;
15970;SDS011;59785;52.582;13.892;2022-12-16T08:19:21;68.72;;;32.25;;
15970;SDS011;59785;52.582;13.892;2022-12-16T08:22:06;69.00;;;34.97;;
15970;SDS011;59785;52.582;13.892;2022-12-16T08:24:51;70.88;;;32.20;;
15970;SDS011;59785;52.582;13.892;2022-12-16T08:27:36;75.53;;;34.67;;
15970;SDS011;59785;52.582;13.892;2022-12-16T08:30:21;72.10;;;34.70;;
15970;SDS011;59785;52.582;13.892;2022-12-16T08:33:05;79.97;;;35.45;;
15970;SDS011;59785;52.582;13.892;2022-12-16T08:35:50;81.07;;;35.10;;
15970;SDS011;59785;52.582;13.892;2022-12-16T08:38:35;83.33;;;36.40;;
15970;SDS011;59785;52.582;13.892;2022-12-16T08:41:20;79.05;;;35.28;;
15970;SDS011;59785;52.582;13.892;2022-12-16T08:44:05;84.28;;;35.40;;
15970;SDS011;59785;52.582;13.892;2022-12-16T08:46:49;84.25;;;37.10;;
15970;SDS011;59785;52.582;13.892;2022-12-16T08:49:34;78.07;;;37.45;;
15970;SDS011;59785;52.582;13.892;2022-12-16T08:52:26;92.00;;;38.65;;
15970;SDS011;59785;52.582;13.892;2022-12-16T08:55:10;95.30;;;38.93;;
15970;SDS011;59785;52.582;13.892;2022-12-16T08:57:55;93.50;;;40.00;;
15970;SDS011;59785;52.582;13.892;2022-12-16T09:00:40;87.22;;;42.28;;
15970;SDS011;59785;52.582;13.892;2022-12-16T09:03:31;82.13;;;40.50;;
15970;SDS011;59785;52.582;13.892;2022-12-16T09:06:16;84.50;;;40.37;;
15970;SDS011;59785;52.582;13.892;2022-12-16T09:09:05;89.22;;;40.08;;
15970;SDS011;59785;52.582;13.892;2022-12-16T09:12:10;90.20;;;38.95;;
15970;SDS011;59785;52.582;13.892;2022-12-16T09:14:55;82.93;;;39.67;;
15970;SDS011;59785;52.582;13.892;2022-12-16T09:17:40;85.15;;;40.83;;
15970;SDS011;59785;52.582;13.892;2022-12-16T09:20:24;86.63;;;39.13;;
15970;SDS011;59785;52.582;13.892;2022-12-16T09:23:09;92.60;;;42.03;;
15970;SDS011;59785;52.582;13.892;2022-12-16T09:25:54;85.53;;;38.85;;
15970;SDS011;59785;52.582;13.892;2022-12-16T09:28:40;83.85;;;39.80;;
15970;SDS011;59785;52.582;13.892;2022-12-16T09:31:25;87.22;;;40.05;;
15970;SDS011;59785;52.582;13.892;2022-12-16T09:34:10;84.22;;;40.35;;
15970;SDS011;59785;52.582;13.892;2022-12-16T09:36:55;80.07;;;36.40;;
15970;SDS011;59785;52.582;13.892;2022-12-16T09:39:39;75.60;;;36.70;;
15970;SDS011;59785;52.582;13.892;2022-12-16T09:42:39;86.53;;;43.85;;
15970;SDS011;59785;52.582;13.892;2022-12-16T09:45:59;85.65;;;37.90;;
15970;SDS011;59785;52.582;13.892;2022-12-16T09:52:01;81.95;;;38.22;;
15970;SDS011;59785;52.582;13.892;2022-12-16T09:54:49;87.05;;;39.28;;
15970;SDS011;59785;52.582;13.892;2022-12-16T09:57:35;85.60;;;39.65;;
15970;SDS011;59785;52.582;13.892;2022-12-16T10:00:21;83.07;;;39.55;;
15970;SDS011;59785;52.582;13.892;2022-12-16T10:03:13;75.72;;;37.22;;
15970;SDS011;59785;52.582;13.892;2022-12-16T10:12:22;76.45;;;36.28;;
15970;SDS011;59785;52.582;13.892;2022-12-16T10:15:24;75.13;;;36.85;;
15970;SDS011;59785;52.582;13.892;2022-12-16T10:21:28;77.15;;;37.60;;
15970;SDS011;59785;52.582;13.892;2022-12-16T10:27:44;72.90;;;38.17;;
15970;SDS011;59785;52.582;13.892;2022-12-16T10:30:32;72.25;;;36.65;;
15970;SDS011;59785;52.582;13.892;2022-12-16T10:33:20;70.57;;;35.33;;
15970;SDS011;59785;52.582;13.892;2022-12-16T10:36:10;63.65;;;34.60;;
15970;SDS011;59785;52.582;13.892;2022-12-16T10:38:59;58.58;;;33.85;;
15970;SDS011;59785;52.582;13.892;2022-12-16T10:41:48;62.53;;;31.05;;
15970;SDS011;59785;52.582;13.892;2022-12-16T10:44:46;64.10;;;33.13;;
15970;SDS011;59785;52.582;13.892;2022-12-16T10:47:35;63.80;;;34.20;;
15970;SDS011;59785;52.582;13.892;2022-12-16T10:50:21;59.03;;;32.30;;
15970;SDS011;59785;52.582;13.892;2022-12-16T10:53:16;63.38;;;32.72;;
15970;SDS011;59785;52.582;13.892;2022-12-16T10:56:16;60.58;;;33.92;;
15970;SDS011;59785;52.582;13.892;2022-12-16T10:59:13;63.90;;;33.35;;
15970;SDS011;59785;52.582;13.892;2022-12-16T11:01:59;68.50;;;35.05;;
15970;SDS011;59785;52.582;13.892;2022-12-16T11:04:46;69.72;;;35.08;;
15970;SDS011;59785;52.582;13.892;2022-12-16T11:07:39;72.13;;;37.15;;
15970;SDS011;59785;52.582;13.892;2022-12-16T11:10:46;66.28;;;35.78;;
15970;SDS011;59785;52.582;13.892;2022-12-16T11:13:35;64.35;;;35.92;;
15970;SDS011;59785;52.582;13.892;2022-12-16T11:16:22;65.55;;;37.70;;
15970;SDS011;59785;52.582;13.892;2022-12-16T11:19:21;66.90;;;33.60;;
15970;SDS011;59785;52.582;13.892;2022-12-16T11:22:18;70.22;;;34.45;;
15970;SDS011;59785;52.582;13.892;2022-12-16T11:25:26;60.20;;;32.17;;
15970;SDS011;59785;52.582;13.892;2022-12-16T11:28:11;62.72;;;34.05;;
15970;SDS011;59785;52.582;13.892;2022-12-16T11:30:57;66.25;;;35.03;;
15970;SDS011;59785;52.582;13.892;2022-12-16T11:33:46;59.33;;;29.95;;
15970;SDS011;59785;52.582;13.892;2022-12-16T11:36:32;67.88;;;31.60;;
15970;SDS011;59785;52.582;13.892;2022-12-16T11:39:20;58.83;;;37.63;;
15970;SDS011;59785;52.582;13.892;2022-12-16T11:42:11;60.40;;;30.63;;
15970;SDS011;59785;52.582;13.892;2022-12-16T11:45:04;60.75;;;32.30;;
15970;SDS011;59785;52.582;13.892;2022-12-16T11:47:55;63.92;;;30.92;;
15970;SDS011;59785;52.582;13.892;2022-12-16T11:50:54;58.95;;;31.55;;
15970;SDS011;59785;52.582;13.892;2022-12-16T11:53:47;61.42;;;31.13;;
15970;SDS011;59785;52.582;13.892;2022-12-16T11:56:38;56.72;;;28.70;;
15970;SDS011;59785;52.582;13.892;2022-12-16T11:59:31;63.20;;;30.42;;
15970;SDS011;59785;52.582;13.892;2022-12-16T12:02:35;59.40;;;30.13;;
15970;SDS011;59785;52.582;13.892;2022-12-16T12:05:51;56.80;;;30.88;;
15970;SDS011;59785;52.582;13.892;2022-12-16T12:09:22;49.60;;;28.52;;
15970;SDS011;59785;52.582;13.892;2022-12-16T12:15:36;59.20;;;29.58;;
15970;SDS011;59785;52.582;13.892;2022-12-16T12:18:31;55.45;;;29.25;;
15970;SDS011;59785;52.582;13.892;2022-12-16T12:21:27;61.47;;;30.83;;
15970;SDS011;59785;52.582;13.892;2022-12-16T12:27:46;53.95;;;28.77;;
15970;SDS011;59785;52.582;13.892;2022-12-16T12:31:37;56.17;;;29.23;;
15970;SDS011;59785;52.582;13.892;2022-12-16T12:37:23;56.50;;;30.70;;
15970;SDS011;59785;52.582;13.892;2022-12-16T12:40:15;51.47;;;27.30;;
15970;SDS011;59785;52.582;13.892;2022-12-16T12:43:16;54.70;;;28.83;;
15970;SDS011;59785;52.582;13.892;2022-12-16T12:46:15;49.92;;;28.85;;
15970;SDS011;59785;52.582;13.892;2022-12-16T12:49:13;55.35;;;29.95;;
15970;SDS011;59785;52.582;13.892;2022-12-16T12:52:21;53.97;;;29.90;;
15970;SDS011;59785;52.582;13.892;2022-12-16T12:58:14;54.25;;;30.98;;
15970;SDS011;59785;52.582;13.892;2022-12-16T13:01:01;56.15;;;30.42;;
15970;SDS011;59785;52.582;13.892;2022-12-16T13:03:49;54.25;;;29.10;;
15970;SDS011;59785;52.582;13.892;2022-12-16T13:06:43;57.85;;;28.95;;
15970;SDS011;59785;52.582;13.892;2022-12-16T13:09:31;53.42;;;30.77;;
15970;SDS011;59785;52.582;13.892;2022-12-16T13:12:18;56.10;;;29.58;;
15970;SDS011;59785;52.582;13.892;2022-12-16T13:15:07;58.35;;;28.30;;
15970;SDS011;59785;52.582;13.892;2022-12-16T13:20:45;57.72;;;30.70;;
15970;SDS011;59785;52.582;13.892;2022-12-16T13:23:32;52.40;;;29.08;;
15970;SDS011;59785;52.582;13.892;2022-12-16T13:26:19;59.03;;;31.23;;
15970;SDS011;59785;52.582;13.892;2022-12-16T13:32:22;59.85;;;31.27;;
15970;SDS011;59785;52.582;13.892;2022-12-16T13:37:59;54.58;;;30.90;;
15970;SDS011;59785;52.582;13.892;2022-12-16T13:46:42;57.50;;;31.23;;
15970;SDS011;59785;52.582;13.892;2022-12-16T13:58:45;56.13;;;30.40;;
15970;SDS011;59785;52.582;13.892;2022-12-16T14:01:37;56.55;;;30.73;;
15970;SDS011;59785;52.582;13.892;2022-12-16T14:04:38;52.70;;;29.40;;
15970;SDS011;59785;52.582;13.892;2022-12-16T14:07:29;57.65;;;32.30;;
15970;SDS011;59785;52.582;13.892;2022-12-16T14:10:26;57.28;;;29.52;;
15970;SDS011;59785;52.582;13.892;2022-12-16T14:13:25;57.92;;;33.55;;
15970;SDS011;59785;52.582;13.892;2022-12-16T14:16:18;53.75;;;31.25;;
15970;SDS011;59785;52.582;13.892;2022-12-16T14:19:33;60.65;;;32.10;;
15970;SDS011;59785;52.582;13.892;2022-12-16T14:25:32;59.38;;;29.58;;
15970;SDS011;59785;52.582;13.892;2022-12-16T14:28:20;62.70;;;33.05;;
15970;SDS011;59785;52.582;13.892;2022-12-16T14:31:20;63.78;;;33.35;;
15970;SDS011;59785;52.582;13.892;2022-12-16T14:34:19;61.28;;;31.73;;
15970;SDS011;59785;52.582;13.892;2022-12-16T14:37:14;63.08;;;33.15;;
15970;SDS011;59785;52.582;13.892;2022-12-16T14:40:03;63.13;;;31.80;;
15970;SDS011;59785;52.582;13.892;2022-12-16T14:43:01;67.07;;;33.60;;
15970;SDS011;59785;52.582;13.892;2022-12-16T14:45:48;70.85;;;37.00;;
15970;SDS011;59785;52.582;13.892;2022-12-16T14:48:34;67.85;;;34.00;;
15970;SDS011;59785;52.582;13.892;2022-12-16T14:54:28;70.40;;;33.55;;
15970;SDS011;59785;52.582;13.892;2022-12-16T14:57:19;66.07;;;33.03;;
15970;SDS011;59785;52.582;13.892;2022-12-16T15:00:13;65.35;;;31.17;;
15970;SDS011;59785;52.582;13.892;2022-12-16T15:03:00;62.97;;;32.83;;
15970;SDS011;59785;52.582;13.892;2022-12-16T15:06:09;69.85;;;34.00;;
15970;SDS011;59785;52.582;13.892;2022-12-16T15:09:02;66.00;;;34.22;;
15970;SDS011;59785;52.582;13.892;2022-12-16T15:11:50;72.78;;;36.75;;
15970;SDS011;59785;52.582;13.892;2022-12-16T15:14:38;77.82;;;34.65;;
15970;SDS011;59785;52.582;13.892;2022-12-16T15:17:34;74.75;;;37.00;;
15970;SDS011;59785;52.582;13.892;2022-12-16T15:20:27;70.85;;;35.22;;
15970;SDS011;59785;52.582;13.892;2022-12-16T15:23:24;71.50;;;35.30;;
15970;SDS011;59785;52.582;13.892;2022-12-16T15:26:18;70.90;;;34.20;;
15970;SDS011;59785;52.582;13.892;2022-12-16T15:29:22;71.85;;;34.90;;
15970;SDS011;59785;52.582;13.892;2022-12-16T15:40:57;71.10;;;36.13;;
15970;SDS011;59785;52.582;13.892;2022-12-16T15:46:29;72.82;;;35.28;;
15970;SDS011;59785;52.582;13.892;2022-12-16T15:49:19;79.35;;;38.53;;
15970;SDS011;59785;52.582;13.892;2022-12-16T15:52:27;65.95;;;33.33;;
15970;SDS011;59785;52.582;13.892;2022-12-16T15:55:24;70.80;;;35.28;;
15970;SDS011;59785;52.582;13.892;2022-12-16T15:58:17;75.60;;;36.17;;
15970;SDS011;59785;52.582;13.892;2022-12-16T16:01:08;74.20;;;38.17;;
15970;SDS011;59785;52.582;13.892;2022-12-16T16:03:57;69.50;;;37.78;;
15970;SDS011;59785;52.582;13.892;2022-12-16T16:06:46;71.10;;;36.15;;
15970;SDS011;59785;52.582;13.892;2022-12-16T16:09:34;71.00;;;37.28;;
15970;SDS011;59785;52.582;13.892;2022-12-16T16:12:20;66.05;;;36.97;;
15970;SDS011;59785;52.582;13.892;2022-12-16T16:15:07;73.07;;;34.40;;
15970;SDS011;59785;52.582;13.892;2022-12-16T16:17:55;76.93;;;37.83;;
15970;SDS011;59785;52.582;13.892;2022-12-16T16:20:42;68.50;;;35.55;;
15970;SDS011;59785;52.582;13.892;2022-12-16T16:23:27;81.00;;;37.83;;
15970;SDS011;59785;52.582;13.892;2022-12-16T16:26:13;82.20;;;41.17;;
15970;SDS011;59785;52.582;13.892;2022-12-16T16:28:59;76.80;;;37.08;;
15970;SDS011;59785;52.582;13.892;2022-12-16T16:31:45;86.47;;;38.67;;
15970;SDS011;59785;52.582;13.892;2022-12-16T16:34:30;80.57;;;40.33;;
15970;SDS011;59785;52.582;13.892;2022-12-16T16:37:16;74.35;;;37.97;;
15970;SDS011;59785;52.582;13.892;2022-12-16T16:40:17;77.90;;;37.10;;
15970;SDS011;59785;52.582;13.892;2022-12-16T16:43:16;78.60;;;36.83;;
15970;SDS011;59785;52.582;13.892;2022-12-16T16:48:51;69.78;;;37.35;;
15970;SDS011;59785;52.582;13.892;2022-12-16T16:51:36;77.00;;;36.77;;
15970;SDS011;59785;52.582;13.892;2022-12-16T16:54:20;80.10;;;36.83;;
15970;SDS011;59785;52.582;13.892;2022-12-16T16:57:06;76.00;;;39.20;;
15970;SDS011;59785;52.582;13.892;2022-12-16T16:59:53;82.65;;;39.88;;
15970;SDS011;59785;52.582;13.892;2022-12-16T17:02:38;83.13;;;40.33;;
15970;SDS011;59785;52.582;13.892;2022-12-16T17:05:23;79.47;;;39.65;;
15970;SDS011;59785;52.582;13.892;2022-12-16T17:08:15;76.78;;;37.40;;
15970;SDS011;59785;52.582;13.892;2022-12-16T17:11:01;80.05;;;42.42;;
15970;SDS011;59785;52.582;13.892;2022-12-16T17:13:45;75.18;;;35.03;;
15970;SDS011;59785;52.582;13.892;2022-12-16T17:16:30;73.18;;;38.13;;
15970;SDS011;59785;52.582;13.892;2022-12-16T17:19:14;84.07;;;40.58;;
15970;SDS011;59785;52.582;13.892;2022-12-16T17:21:59;79.70;;;40.20;;
15970;SDS011;59785;52.582;13.892;2022-12-16T17:24:44;73.57;;;39.83;;
15970;SDS011;59785;52.582;13.892;2022-12-16T17:27:28;81.93;;;42.47;;
15970;SDS011;59785;52.582;13.892;2022-12-16T17:30:15;78.77;;;39.87;;
15970;SDS011;59785;52.582;13.892;2022-12-16T17:33:09;80.32;;;39.38;;
15970;SDS011;59785;52.582;13.892;2022-12-16T17:35:54;83.27;;;41.60;;
15970;SDS011;59785;52.582;13.892;2022-12-16T17:38:40;88.57;;;40.15;;
15970;SDS011;59785;52.582;13.892;2022-12-16T17:41:27;71.88;;;34.60;;
15970;SDS011;59785;52.582;13.892;2022-12-16T17:44:12;83.00;;;39.78;;
15970;SDS011;59785;52.582;13.892;2022-12-16T17:46:57;81.00;;;38.72;;
15970;SDS011;59785;52.582;13.892;2022-12-16T17:49:42;76.22;;;39.03;;
15970;SDS011;59785;52.582;13.892;2022-12-16T17:52:27;81.77;;;41.20;;
15970;SDS011;59785;52.582;13.892;2022-12-16T17:55:12;84.78;;;40.40;;
15970;SDS011;59785;52.582;13.892;2022-12-16T17:57:56;75.22;;;37.10;;
15970;SDS011;59785;52.582;13.892;2022-12-16T18:00:41;69.35;;;36.15;;
15970;SDS011;59785;52.582;13.892;2022-12-16T18:03:26;82.13;;;38.85;;
15970;SDS011;59785;52.582;13.892;2022-12-16T18:06:11;81.43;;;38.15;;
15970;SDS011;59785;52.582;13.892;2022-12-16T18:08:56;79.15;;;38.72;;
15970;SDS011;59785;52.582;13.892;2022-12-16T18:11:41;70.72;;;37.25;;
15970;SDS011;59785;52.582;13.892;2022-12-16T18:14:25;72.43;;;35.65;;
15970;SDS011;59785;52.582;13.892;2022-12-16T18:17:10;74.72;;;37.47;;
15970;SDS011;59785;52.582;13.892;2022-12-16T18:19:54;70.82;;;36.20;;
15970;SDS011;59785;52.582;13.892;2022-12-16T18:22:39;73.18;;;37.03;;
15970;SDS011;59785;52.582;13.892;2022-12-16T18:25:24;78.05;;;36.03;;
15970;SDS011;59785;52.582;13.892;2022-12-16T18:28:08;77.20;;;38.63;;
15970;SDS011;59785;52.582;13.892;2022-12-16T18:30:53;74.90;;;36.85;;
15970;SDS011;59785;52.582;13.892;2022-12-16T18:33:38;76.53;;;37.87;;
15970;SDS011;59785;52.582;13.892;2022-12-16T18:36:23;71.50;;;37.27;;
15970;SDS011;59785;52.582;13.892;2022-12-16T18:39:07;71.88;;;36.65;;
15970;SDS011;59785;52.582;13.892;2022-12-16T18:41:53;77.75;;;38.92;;
15970;SDS011;59785;52.582;13.892;2022-12-16T18:44:37;83.68;;;40.03;;
15970;SDS011;59785;52.582;13.892;2022-12-16T18:47:26;80.35;;;37.40;;
15970;SDS011;59785;52.582;13.892;2022-12-16T18:50:10;77.90;;;39.35;;
15970;SDS011;59785;52.582;13.892;2022-12-16T18:53:02;79.95;;;40.78;;
15970;SDS011;59785;52.582;13.892;2022-12-16T18:55:47;78.78;;;38.30;;
15970;SDS011;59785;52.582;13.892;2022-12-16T18:58:33;81.50;;;38.10;;
15970;SDS011;59785;52.582;13.892;2022-12-16T19:01:18;89.53;;;40.05;;
15970;SDS011;59785;52.582;13.892;2022-12-16T19:04:03;80.90;;;37.45;;
15970;SDS011;59785;52.582;13.892;2022-12-16T19:06:48;81.73;;;37.83;;
15970;SDS011;59785;52.582;13.892;2022-12-16T19:09:33;86.28;;;40.97;;
15970;SDS011;59785;52.582;13.892;2022-12-16T19:12:18;85.28;;;39.55;;
15970;SDS011;59785;52.582;13.892;2022-12-16T19:15:03;85.17;;;38.67;;
15970;SDS011;59785;52.582;13.892;2022-12-16T19:17:48;81.20;;;38.85;;
15970;SDS011;59785;52.582;13.892;2022-12-16T19:20:34;78.57;;;39.38;;
15970;SDS011;59785;52.582;13.892;2022-12-16T19:23:21;89.50;;;40.85;;
15970;SDS011;59785;52.582;13.892;2022-12-16T19:26:06;87.45;;;41.60;;
15970;SDS011;59785;52.582;13.892;2022-12-16T19:28:51;95.65;;;43.13;;
15970;SDS011;59785;52.582;13.892;2022-12-16T19:31:36;92.25;;;42.22;;
15970;SDS011;59785;52.582;13.892;2022-12-16T19:34:21;102.07;;;44.10;;
15970;SDS011;59785;52.582;13.892;2022-12-16T19:37:06;99.68;;;44.83;;
15970;SDS011;59785;52.582;13.892;2022-12-16T19:39:50;100.95;;;41.55;;
15970;SDS011;59785;52.582;13.892;2022-12-16T19:42:35;106.53;;;44.33;;
15970;SDS011;59785;52.582;13.892;2022-12-16T19:45:20;106.93;;;45.85;;
15970;SDS011;59785;52.582;13.892;2022-12-16T19:48:06;103.67;;;45.93;;
15970;SDS011;59785;52.582;13.892;2022-12-16T19:50:57;103.40;;;46.60;;
15970;SDS011;59785;52.582;13.892;2022-12-16T19:53:42;105.95;;;46.22;;
15970;SDS011;59785;52.582;13.892;2022-12-16T19:56:28;101.45;;;46.08;;
15970;SDS011;59785;52.582;13.892;2022-12-16T19:59:16;97.00;;;44.25;;
15970;SDS011;59785;52.582;13.892;2022-12-16T20:02:00;103.07;;;44.03;;
15970;SDS011;59785;52.582;13.892;2022-12-16T20:04:46;109.57;;;45.33;;
15970;SDS011;59785;52.582;13.892;2022-12-16T20:07:30;98.15;;;43.60;;
15970;SDS011;59785;52.582;13.892;2022-12-16T20:13:06;110.05;;;43.28;;
15970;SDS011;59785;52.582;13.892;2022-12-16T20:16:01;104.60;;;42.78;;
15970;SDS011;59785;52.582;13.892;2022-12-16T20:18:50;108.88;;;44.67;;
15970;SDS011;59785;52.582;13.892;2022-12-16T20:21:35;112.07;;;46.43;;
15970;SDS011;59785;52.582;13.892;2022-12-16T20:24:21;108.95;;;46.55;;
15970;SDS011;59785;52.582;13.892;2022-12-16T20:27:06;110.97;;;46.67;;
15970;SDS011;59785;52.582;13.892;2022-12-16T20:29:51;114.17;;;45.93;;
15970;SDS011;59785;52.582;13.892;2022-12-16T20:32:36;111.57;;;47.87;;
15970;SDS011;59785;52.582;13.892;2022-12-16T20:35:21;116.70;;;47.67;;
15970;SDS011;59785;52.582;13.892;2022-12-16T20:38:06;128.63;;;47.50;;
15970;SDS011;59785;52.582;13.892;2022-12-16T20:40:54;117.85;;;47.90;;
15970;SDS011;59785;52.582;13.892;2022-12-16T20:43:45;117.18;;;47.47;;
15970;SDS011;59785;52.582;13.892;2022-12-16T20:46:33;117.13;;;48.35;;
15970;SDS011;59785;52.582;13.892;2022-12-16T20:49:21;111.28;;;47.13;;
15970;SDS011;59785;52.582;13.892;2022-12-16T20:52:05;120.90;;;47.80;;
15970;SDS011;59785;52.582;13.892;2022-12-16T20:54:50;124.45;;;47.53;;
15970;SDS011;59785;52.582;13.892;2022-12-16T20:57:35;123.63;;;49.57;;
15970;SDS011;59785;52.582;13.892;2022-12-16T21:00:21;116.75;;;47.97;;
15970;SDS011;59785;52.582;13.892;2022-12-16T21:03:06;116.82;;;46.42;;
15970;SDS011;59785;52.582;13.892;2022-12-16T21:08:36;133.05;;;49.78;;
15970;SDS011;59785;52.582;13.892;2022-12-16T21:11:21;121.87;;;48.70;;
15970;SDS011;59785;52.582;13.892;2022-12-16T21:14:05;116.40;;;48.03;;
15970;SDS011;59785;52.582;13.892;2022-12-16T21:16:50;110.05;;;45.83;;
15970;SDS011;59785;52.582;13.892;2022-12-16T21:19:34;109.50;;;46.30;;
15970;SDS011;59785;52.582;13.892;2022-12-16T21:22:20;111.38;;;45.60;;
15970;SDS011;59785;52.582;13.892;2022-12-16T21:25:05;109.10;;;45.90;;
15970;SDS011;59785;52.582;13.892;2022-12-16T21:27:50;111.50;;;46.30;;
15970;SDS011;59785;52.582;13.892;2022-12-16T21:30:39;110.32;;;45.83;;
15970;SDS011;59785;52.582;13.892;2022-12-16T21:33:24;116.00;;;46.53;;
15970;SDS011;59785;52.582;13.892;2022-12-16T21:36:09;106.75;;;43.90;;
15970;SDS011;59785;52.582;13.892;2022-12-16T21:38:54;117.68;;;48.28;;
15970;SDS011;59785;52.582;13.892;2022-12-16T21:41:39;112.27;;;45.63;;
15970;SDS011;59785;52.582;13.892;2022-12-16T21:44:23;119.85;;;47.63;;
15970;SDS011;59785;52.582;13.892;2022-12-16T21:47:08;106.43;;;46.75;;
15970;SDS011;59785;52.582;13.892;2022-12-16T21:49:53;114.68;;;47.92;;
15970;SDS011;59785;52.582;13.892;2022-12-16T21:52:38;117.90;;;46.27;;
15970;SDS011;59785;52.582;13.892;2022-12-16T21:55:23;114.75;;;46.63;;
15970;SDS011;59785;52.582;13.892;2022-12-16T21:58:11;105.23;;;43.73;;
15970;SDS011;59785;52.582;13.892;2022-12-16T22:00:56;121.20;;;46.38;;
15970;SDS011;59785;52.582;13.892;2022-12-16T22:03:42;119.35;;;47.28;;
15970;SDS011;59785;52.582;13.892;2022-12-16T22:06:27;115.63;;;46.47;;
15970;SDS011;59785;52.582;13.892;2022-12-16T22:09:13;121.13;;;49.83;;
15970;SDS011;59785;52.582;13.892;2022-12-16T22:11:58;123.47;;;47.77;;
15970;SDS011;59785;52.582;13.892;2022-12-16T22:14:44;134.38;;;48.85;;
15970;SDS011;59785;52.582;13.892;2022-12-16T22:17:29;118.05;;;49.45;;
15970;SDS011;59785;52.582;13.892;2022-12-16T22:20:23;121.47;;;48.45;;
15970;SDS011;59785;52.582;13.892;2022-12-16T22:23:07;126.43;;;47.83;;